sensor_id;sensor_type;location;lat;lon;timestamp;pressure;altitude;pressure_sealevel;temperature;humidity
76519;BME280;67029;51.054;13.798;2023-07-13T00:01:12;99990.27;;;27.09;35.97
76519;BME280;67029;51.054;13.798;2023-07-13T00:03:42;99990.12;;;27.12;35.80
76519;BME280;67029;51.054;13.798;2023-07-13T00:06:12;99984.14;;;27.14;35.85
76519;BME280;67029;51.054;13.798;2023-07-13T00:08:42;99987.95;;;27.13;35.83
76519;BME280;67029;51.054;13.798;2023-07-13T00:11:12;99992.62;;;27.13;35.83
76519;BME280;67029;51.054;13.798;2023-07-13T00:13:43;99994.98;;;27.12;35.77
76519;BME280;67029;51.054;13.798;2023-07-13T00:16:13;100003.09;;;27.14;35.77
76519;BME280;67029;51.054;13.798;2023-07-13T00:18:43;100006.20;;;27.13;35.71
76519;BME280;67029;51.054;13.798;2023-07-13T00:21:13;100008.42;;;27.12;35.81
76519;BME280;67029;51.054;13.798;2023-07-13T00:23:43;100013.02;;;27.12;35.83
76519;BME280;67029;51.054;13.798;2023-07-13T00:26:14;100015.75;;;27.14;35.68
76519;BME280;67029;51.054;13.798;2023-07-13T00:28:44;100020.89;;;27.13;35.67
76519;BME280;67029;51.054;13.798;2023-07-13T00:31:14;100036.33;;;27.13;35.67
76519;BME280;67029;51.054;13.798;2023-07-13T00:33:44;100042.02;;;27.10;35.67
76519;BME280;67029;51.054;13.798;2023-07-13T00:36:14;100048.02;;;27.11;35.86
76519;BME280;67029;51.054;13.798;2023-07-13T00:38:44;100057.61;;;27.10;36.20
76519;BME280;67029;51.054;13.798;2023-07-13T00:41:14;100074.61;;;27.11;36.47
76519;BME280;67029;51.054;13.798;2023-07-13T00:43:44;100088.44;;;27.09;36.87
76519;BME280;67029;51.054;13.798;2023-07-13T00:46:22;100093.98;;;27.07;37.32
76519;BME280;67029;51.054;13.798;2023-07-13T00:48:47;100095.95;;;27.04;38.15
76519;BME280;67029;51.054;13.798;2023-07-13T00:51:19;100095.03;;;27.00;38.63
76519;BME280;67029;51.054;13.798;2023-07-13T00:53:46;100086.26;;;26.93;39.34
76519;BME280;67029;51.054;13.798;2023-07-13T00:56:16;100076.84;;;26.78;39.48
76519;BME280;67029;51.054;13.798;2023-07-13T00:58:46;100077.78;;;26.72;39.73
76519;BME280;67029;51.054;13.798;2023-07-13T01:01:16;100078.51;;;26.58;40.25
76519;BME280;67029;51.054;13.798;2023-07-13T01:03:46;100070.52;;;26.49;40.64
76519;BME280;67029;51.054;13.798;2023-07-13T01:06:16;100049.03;;;26.33;41.29
76519;BME280;67029;51.054;13.798;2023-07-13T01:08:46;100019.15;;;26.27;41.52
76519;BME280;67029;51.054;13.798;2023-07-13T01:11:20;100006.40;;;26.24;42.37
76519;BME280;67029;51.054;13.798;2023-07-13T01:13:46;100001.47;;;26.17;42.66
76519;BME280;67029;51.054;13.798;2023-07-13T01:16:27;100015.11;;;26.10;42.42
76519;BME280;67029;51.054;13.798;2023-07-13T01:18:47;100029.41;;;26.06;42.57
76519;BME280;67029;51.054;13.798;2023-07-13T01:21:17;100037.94;;;26.01;42.61
76519;BME280;67029;51.054;13.798;2023-07-13T01:23:47;100042.08;;;25.95;42.97
76519;BME280;67029;51.054;13.798;2023-07-13T01:26:17;100045.12;;;25.89;42.98
76519;BME280;67029;51.054;13.798;2023-07-13T01:28:47;100038.19;;;25.80;43.46
76519;BME280;67029;51.054;13.798;2023-07-13T01:31:17;100038.45;;;25.74;43.88
76519;BME280;67029;51.054;13.798;2023-07-13T01:33:47;100041.38;;;25.69;44.20
76519;BME280;67029;51.054;13.798;2023-07-13T01:36:17;100038.02;;;25.60;44.36
76519;BME280;67029;51.054;13.798;2023-07-13T01:38:47;100041.05;;;25.54;44.56
76519;BME280;67029;51.054;13.798;2023-07-13T01:41:17;100039.71;;;25.50;44.49
76519;BME280;67029;51.054;13.798;2023-07-13T01:43:47;100037.95;;;25.47;44.55
76519;BME280;67029;51.054;13.798;2023-07-13T01:46:17;100037.03;;;25.36;44.41
76519;BME280;67029;51.054;13.798;2023-07-13T01:48:47;100044.95;;;25.28;44.78
76519;BME280;67029;51.054;13.798;2023-07-13T01:51:19;100045.23;;;25.25;44.61
76519;BME280;67029;51.054;13.798;2023-07-13T01:53:48;100047.38;;;25.16;45.00
76519;BME280;67029;51.054;13.798;2023-07-13T01:56:18;100042.03;;;24.99;45.19
76519;BME280;67029;51.054;13.798;2023-07-13T01:58:48;100035.62;;;24.80;45.54
76519;BME280;67029;51.054;13.798;2023-07-13T02:01:18;100032.95;;;24.77;46.12
76519;BME280;67029;51.054;13.798;2023-07-13T02:03:48;100027.79;;;24.77;46.51
76519;BME280;67029;51.054;13.798;2023-07-13T02:06:18;100028.64;;;24.78;46.37
76519;BME280;67029;51.054;13.798;2023-07-13T02:08:49;100036.12;;;24.78;46.42
76519;BME280;67029;51.054;13.798;2023-07-13T02:11:19;100035.91;;;24.79;46.32
76519;BME280;67029;51.054;13.798;2023-07-13T02:13:49;100029.45;;;24.77;46.85
76519;BME280;67029;51.054;13.798;2023-07-13T02:16:19;100032.09;;;24.75;46.78
76519;BME280;67029;51.054;13.798;2023-07-13T02:18:49;100033.56;;;24.72;46.79
76519;BME280;67029;51.054;13.798;2023-07-13T02:21:19;100033.98;;;24.52;47.04
76519;BME280;67029;51.054;13.798;2023-07-13T02:23:49;100032.98;;;24.46;47.26
76519;BME280;67029;51.054;13.798;2023-07-13T02:26:19;100032.67;;;24.37;47.42
76519;BME280;67029;51.054;13.798;2023-07-13T02:28:49;100037.63;;;24.13;47.40
76519;BME280;67029;51.054;13.798;2023-07-13T02:31:19;100038.69;;;24.05;48.31
76519;BME280;67029;51.054;13.798;2023-07-13T02:33:49;100048.88;;;24.11;48.41
76519;BME280;67029;51.054;13.798;2023-07-13T02:36:19;100049.79;;;24.04;48.27
76519;BME280;67029;51.054;13.798;2023-07-13T02:38:50;100048.16;;;23.96;48.65
76519;BME280;67029;51.054;13.798;2023-07-13T02:41:20;100049.98;;;23.96;49.03
76519;BME280;67029;51.054;13.798;2023-07-13T02:43:50;100049.30;;;23.96;48.81
76519;BME280;67029;51.054;13.798;2023-07-13T02:46:20;100052.30;;;24.01;48.76
76519;BME280;67029;51.054;13.798;2023-07-13T02:48:50;100056.38;;;24.02;48.58
76519;BME280;67029;51.054;13.798;2023-07-13T02:51:20;100051.97;;;23.89;48.68
76519;BME280;67029;51.054;13.798;2023-07-13T02:53:50;100049.53;;;23.81;48.70
76519;BME280;67029;51.054;13.798;2023-07-13T02:56:25;100046.17;;;23.85;48.87
76519;BME280;67029;51.054;13.798;2023-07-13T02:58:51;100051.65;;;23.91;48.99
76519;BME280;67029;51.054;13.798;2023-07-13T03:01:21;100059.72;;;23.96;49.11
76519;BME280;67029;51.054;13.798;2023-07-13T03:03:52;100064.89;;;23.96;48.85
76519;BME280;67029;51.054;13.798;2023-07-13T03:06:22;100061.22;;;23.97;48.88
76519;BME280;67029;51.054;13.798;2023-07-13T03:08:52;100059.27;;;23.98;49.03
76519;BME280;67029;51.054;13.798;2023-07-13T03:11:22;100057.44;;;23.99;49.17
76519;BME280;67029;51.054;13.798;2023-07-13T03:13:52;100053.66;;;24.00;49.65
76519;BME280;67029;51.054;13.798;2023-07-13T03:16:22;100058.31;;;23.99;49.35
76519;BME280;67029;51.054;13.798;2023-07-13T03:18:52;100064.16;;;23.99;49.80
76519;BME280;67029;51.054;13.798;2023-07-13T03:21:22;100061.63;;;23.98;49.70
76519;BME280;67029;51.054;13.798;2023-07-13T03:23:52;100059.33;;;23.98;49.70
76519;BME280;67029;51.054;13.798;2023-07-13T03:26:22;100062.97;;;23.99;50.33
76519;BME280;67029;51.054;13.798;2023-07-13T03:28:52;100063.64;;;23.99;49.93
76519;BME280;67029;51.054;13.798;2023-07-13T03:31:24;100066.94;;;24.00;50.30
76519;BME280;67029;51.054;13.798;2023-07-13T03:33:53;100065.50;;;24.00;50.22
76519;BME280;67029;51.054;13.798;2023-07-13T03:36:25;100066.52;;;23.99;50.37
76519;BME280;67029;51.054;13.798;2023-07-13T03:38:56;100069.86;;;23.98;50.59
76519;BME280;67029;51.054;13.798;2023-07-13T03:41:25;100071.28;;;23.96;50.66
76519;BME280;67029;51.054;13.798;2023-07-13T03:43:55;100073.95;;;23.95;50.53
76519;BME280;67029;51.054;13.798;2023-07-13T03:46:25;100076.62;;;23.96;50.65
76519;BME280;67029;51.054;13.798;2023-07-13T03:48:55;100077.38;;;23.96;50.46
76519;BME280;67029;51.054;13.798;2023-07-13T03:51:25;100081.34;;;23.97;50.60
76519;BME280;67029;51.054;13.798;2023-07-13T03:53:55;100084.86;;;23.97;50.45
76519;BME280;67029;51.054;13.798;2023-07-13T03:56:25;100085.78;;;23.97;50.51
76519;BME280;67029;51.054;13.798;2023-07-13T03:58:56;100086.88;;;23.96;50.30
76519;BME280;67029;51.054;13.798;2023-07-13T04:01:25;100086.31;;;23.98;50.55
76519;BME280;67029;51.054;13.798;2023-07-13T04:03:56;100089.19;;;23.99;50.33
76519;BME280;67029;51.054;13.798;2023-07-13T04:06:29;100093.87;;;23.99;50.26
76519;BME280;67029;51.054;13.798;2023-07-13T04:08:58;100104.17;;;24.01;50.29
76519;BME280;67029;51.054;13.798;2023-07-13T04:11:29;100112.36;;;24.02;50.14
76519;BME280;67029;51.054;13.798;2023-07-13T04:13:59;100110.31;;;24.03;49.96
76519;BME280;67029;51.054;13.798;2023-07-13T04:16:27;100116.83;;;24.06;50.06
76519;BME280;67029;51.054;13.798;2023-07-13T04:18:57;100118.55;;;24.10;50.05
76519;BME280;67029;51.054;13.798;2023-07-13T04:21:30;100117.33;;;24.13;49.98
76519;BME280;67029;51.054;13.798;2023-07-13T04:23:58;100114.55;;;24.17;49.78
76519;BME280;67029;51.054;13.798;2023-07-13T04:26:29;100118.84;;;24.22;49.91
76519;BME280;67029;51.054;13.798;2023-07-13T04:28:59;100113.02;;;24.37;49.53
76519;BME280;67029;51.054;13.798;2023-07-13T04:31:29;100112.58;;;24.44;49.31
76519;BME280;67029;51.054;13.798;2023-07-13T04:33:59;100117.70;;;24.50;49.44
76519;BME280;67029;51.054;13.798;2023-07-13T04:36:29;100115.73;;;24.48;49.08
76519;BME280;67029;51.054;13.798;2023-07-13T04:39:02;100115.80;;;24.43;49.07
76519;BME280;67029;51.054;13.798;2023-07-13T04:41:29;100118.51;;;24.28;49.57
76519;BME280;67029;51.054;13.798;2023-07-13T04:43:59;100120.57;;;24.25;49.51
76519;BME280;67029;51.054;13.798;2023-07-13T04:46:29;100123.08;;;24.28;49.56
76519;BME280;67029;51.054;13.798;2023-07-13T04:48:59;100126.29;;;24.32;49.59
76519;BME280;67029;51.054;13.798;2023-07-13T04:51:29;100123.02;;;24.39;49.41
76519;BME280;67029;51.054;13.798;2023-07-13T04:53:59;100128.94;;;24.44;49.22
76519;BME280;67029;51.054;13.798;2023-07-13T04:56:29;100131.22;;;24.50;49.07
76519;BME280;67029;51.054;13.798;2023-07-13T04:58:59;100132.14;;;24.55;49.08
76519;BME280;67029;51.054;13.798;2023-07-13T05:01:29;100133.61;;;24.58;49.03
76519;BME280;67029;51.054;13.798;2023-07-13T05:03:59;100132.98;;;24.59;48.89
76519;BME280;67029;51.054;13.798;2023-07-13T05:06:29;100138.01;;;24.61;48.98
76519;BME280;67029;51.054;13.798;2023-07-13T05:08:59;100135.61;;;24.63;48.71
76519;BME280;67029;51.054;13.798;2023-07-13T05:11:29;100134.55;;;24.67;48.62
76519;BME280;67029;51.054;13.798;2023-07-13T05:13:59;100133.57;;;24.67;48.25
76519;BME280;67029;51.054;13.798;2023-07-13T05:16:29;100137.34;;;24.59;48.62
76519;BME280;67029;51.054;13.798;2023-07-13T05:18:59;100138.24;;;24.61;48.56
76519;BME280;67029;51.054;13.798;2023-07-13T05:21:29;100135.71;;;24.70;48.71
76519;BME280;67029;51.054;13.798;2023-07-13T05:24:00;100133.69;;;24.73;48.80
76519;BME280;67029;51.054;13.798;2023-07-13T05:26:30;100134.09;;;24.82;48.58
76519;BME280;67029;51.054;13.798;2023-07-13T05:29:01;100126.98;;;24.77;48.70
76519;BME280;67029;51.054;13.798;2023-07-13T05:31:30;100131.16;;;24.75;48.63
76519;BME280;67029;51.054;13.798;2023-07-13T05:34:00;100135.12;;;24.68;48.88
76519;BME280;67029;51.054;13.798;2023-07-13T05:36:30;100139.12;;;24.64;49.11
76519;BME280;67029;51.054;13.798;2023-07-13T05:39:00;100141.43;;;24.70;48.91
76519;BME280;67029;51.054;13.798;2023-07-13T05:41:30;100142.42;;;24.71;48.74
76519;BME280;67029;51.054;13.798;2023-07-13T05:44:00;100145.94;;;24.77;48.70
76519;BME280;67029;51.054;13.798;2023-07-13T05:46:30;100140.02;;;24.94;48.43
76519;BME280;67029;51.054;13.798;2023-07-13T05:49:00;100141.69;;;25.07;48.12
76519;BME280;67029;51.054;13.798;2023-07-13T05:51:30;100143.12;;;25.15;47.93
76519;BME280;67029;51.054;13.798;2023-07-13T05:54:00;100141.77;;;25.29;47.75
76519;BME280;67029;51.054;13.798;2023-07-13T05:56:30;100138.27;;;25.42;47.49
76519;BME280;67029;51.054;13.798;2023-07-13T05:59:00;100137.88;;;25.54;47.28
76519;BME280;67029;51.054;13.798;2023-07-13T06:01:36;100134.42;;;25.55;46.99
76519;BME280;67029;51.054;13.798;2023-07-13T06:04:00;100130.39;;;25.59;46.94
76519;BME280;67029;51.054;13.798;2023-07-13T06:06:30;100128.62;;;25.70;46.65
76519;BME280;67029;51.054;13.798;2023-07-13T06:09:01;100130.18;;;25.81;46.22
76519;BME280;67029;51.054;13.798;2023-07-13T06:11:31;100131.50;;;25.90;46.01
76519;BME280;67029;51.054;13.798;2023-07-13T06:14:01;100133.59;;;26.04;45.91
76519;BME280;67029;51.054;13.798;2023-07-13T06:16:31;100138.09;;;26.07;45.68
76519;BME280;67029;51.054;13.798;2023-07-13T06:19:01;100141.34;;;26.11;45.28
76519;BME280;67029;51.054;13.798;2023-07-13T06:21:31;100147.19;;;26.15;45.01
76519;BME280;67029;51.054;13.798;2023-07-13T06:24:01;100149.52;;;26.24;44.63
76519;BME280;67029;51.054;13.798;2023-07-13T06:26:31;100157.66;;;26.22;44.46
76519;BME280;67029;51.054;13.798;2023-07-13T06:29:01;100157.25;;;26.24;44.10
76519;BME280;67029;51.054;13.798;2023-07-13T06:31:31;100159.08;;;26.13;43.90
76519;BME280;67029;51.054;13.798;2023-07-13T06:34:01;100152.88;;;26.20;43.99
76519;BME280;67029;51.054;13.798;2023-07-13T06:36:31;100156.02;;;26.32;43.93
76519;BME280;67029;51.054;13.798;2023-07-13T06:39:02;100150.47;;;26.30;43.61
76519;BME280;67029;51.054;13.798;2023-07-13T06:41:32;100155.07;;;26.23;43.57
76519;BME280;67029;51.054;13.798;2023-07-13T06:44:02;100153.98;;;26.28;43.34
76519;BME280;67029;51.054;13.798;2023-07-13T06:46:32;100159.53;;;26.34;43.40
76519;BME280;67029;51.054;13.798;2023-07-13T06:49:02;100164.14;;;26.45;43.33
76519;BME280;67029;51.054;13.798;2023-07-13T06:51:32;100169.48;;;26.56;43.21
76519;BME280;67029;51.054;13.798;2023-07-13T06:54:03;100172.96;;;26.58;43.10
76519;BME280;67029;51.054;13.798;2023-07-13T06:56:33;100176.76;;;26.74;42.89
76519;BME280;67029;51.054;13.798;2023-07-13T06:59:03;100184.06;;;26.89;42.41
76519;BME280;67029;51.054;13.798;2023-07-13T07:01:33;100183.88;;;27.00;42.23
76519;BME280;67029;51.054;13.798;2023-07-13T07:04:03;100186.77;;;27.13;42.01
76519;BME280;67029;51.054;13.798;2023-07-13T07:06:33;100185.22;;;27.11;41.83
76519;BME280;67029;51.054;13.798;2023-07-13T07:09:03;100186.72;;;27.13;41.87
76519;BME280;67029;51.054;13.798;2023-07-13T07:11:33;100189.52;;;27.26;41.82
76519;BME280;67029;51.054;13.798;2023-07-13T07:14:03;100195.30;;;27.32;41.76
76519;BME280;67029;51.054;13.798;2023-07-13T07:16:33;100194.06;;;27.44;41.56
76519;BME280;67029;51.054;13.798;2023-07-13T07:19:03;100193.72;;;27.55;40.78
76519;BME280;67029;51.054;13.798;2023-07-13T07:21:33;100194.80;;;27.63;40.60
76519;BME280;67029;51.054;13.798;2023-07-13T07:24:04;100194.12;;;27.75;40.41
76519;BME280;67029;51.054;13.798;2023-07-13T07:26:34;100197.61;;;27.87;40.29
76519;BME280;67029;51.054;13.798;2023-07-13T07:29:04;100192.67;;;27.93;40.06
76519;BME280;67029;51.054;13.798;2023-07-13T07:31:34;100187.56;;;27.97;39.74
76519;BME280;67029;51.054;13.798;2023-07-13T07:34:04;100193.69;;;27.98;39.63
76519;BME280;67029;51.054;13.798;2023-07-13T07:36:34;100188.91;;;28.04;39.71
76519;BME280;67029;51.054;13.798;2023-07-13T07:39:04;100192.28;;;28.17;39.53
76519;BME280;67029;51.054;13.798;2023-07-13T07:41:37;100189.36;;;28.24;39.39
76519;BME280;67029;51.054;13.798;2023-07-13T07:44:04;100191.91;;;28.23;39.01
76519;BME280;67029;51.054;13.798;2023-07-13T07:46:34;100193.73;;;28.27;38.53
76519;BME280;67029;51.054;13.798;2023-07-13T07:49:04;100189.57;;;28.37;38.76
76519;BME280;67029;51.054;13.798;2023-07-13T07:51:34;100191.20;;;28.48;38.60
76519;BME280;67029;51.054;13.798;2023-07-13T07:54:05;100187.38;;;28.62;38.60
76519;BME280;67029;51.054;13.798;2023-07-13T07:56:35;100188.42;;;28.71;37.87
76519;BME280;67029;51.054;13.798;2023-07-13T07:59:05;100189.98;;;28.79;37.70
76519;BME280;67029;51.054;13.798;2023-07-13T08:01:35;100192.20;;;28.85;37.53
76519;BME280;67029;51.054;13.798;2023-07-13T08:04:05;100191.23;;;28.97;36.96
76519;BME280;67029;51.054;13.798;2023-07-13T08:06:35;100193.44;;;29.06;36.71
76519;BME280;67029;51.054;13.798;2023-07-13T08:09:05;100192.03;;;29.19;36.38
76519;BME280;67029;51.054;13.798;2023-07-13T08:11:35;100201.09;;;29.19;36.16
76519;BME280;67029;51.054;13.798;2023-07-13T08:14:05;100198.02;;;29.30;35.78
76519;BME280;67029;51.054;13.798;2023-07-13T08:16:35;100205.72;;;29.45;35.40
76519;BME280;67029;51.054;13.798;2023-07-13T08:19:05;100206.98;;;29.59;35.16
76519;BME280;67029;51.054;13.798;2023-07-13T08:21:36;100213.80;;;29.63;34.62
76519;BME280;67029;51.054;13.798;2023-07-13T08:24:06;100216.70;;;29.57;33.89
76519;BME280;67029;51.054;13.798;2023-07-13T08:26:36;100212.55;;;29.72;34.18
76519;BME280;67029;51.054;13.798;2023-07-13T08:29:06;100208.39;;;29.77;33.84
76519;BME280;67029;51.054;13.798;2023-07-13T08:31:36;100207.44;;;29.79;33.49
76519;BME280;67029;51.054;13.798;2023-07-13T08:34:06;100208.76;;;30.06;33.86
76519;BME280;67029;51.054;13.798;2023-07-13T08:36:36;100203.62;;;30.27;32.86
76519;BME280;67029;51.054;13.798;2023-07-13T08:39:06;100206.75;;;30.52;33.13
76519;BME280;67029;51.054;13.798;2023-07-13T08:41:37;100205.83;;;30.83;33.07
76519;BME280;67029;51.054;13.798;2023-07-13T08:44:16;100201.92;;;31.14;32.78
76519;BME280;67029;51.054;13.798;2023-07-13T08:46:40;100209.48;;;31.36;32.02
76519;BME280;67029;51.054;13.798;2023-07-13T08:49:13;100204.94;;;31.59;31.33
76519;BME280;67029;51.054;13.798;2023-07-13T08:52:00;100208.09;;;31.87;31.19
76519;BME280;67029;51.054;13.798;2023-07-13T08:54:19;100204.39;;;32.07;31.33
76519;BME280;67029;51.054;13.798;2023-07-13T08:56:39;100201.70;;;32.25;31.05
76519;BME280;67029;51.054;13.798;2023-07-13T08:59:13;100203.27;;;32.46;30.90
76519;BME280;67029;51.054;13.798;2023-07-13T09:04:14;100211.69;;;32.67;29.79
76519;BME280;67029;51.054;13.798;2023-07-13T09:11:50;100220.23;;;32.87;28.76
76519;BME280;67029;51.054;13.798;2023-07-13T09:14:40;100217.88;;;32.91;28.71
76519;BME280;67029;51.054;13.798;2023-07-13T09:16:42;100220.27;;;32.97;28.28
76519;BME280;67029;51.054;13.798;2023-07-13T09:19:19;100224.50;;;33.06;28.12
76519;BME280;67029;51.054;13.798;2023-07-13T09:21:44;100228.97;;;33.17;27.82
76519;BME280;67029;51.054;13.798;2023-07-13T09:24:37;100226.54;;;33.30;27.89
76519;BME280;67029;51.054;13.798;2023-07-13T09:26:44;100229.52;;;33.49;27.22
76519;BME280;67029;51.054;13.798;2023-07-13T09:29:29;100228.36;;;33.52;27.11
76519;BME280;67029;51.054;13.798;2023-07-13T09:31:49;100226.91;;;33.52;27.71
76519;BME280;67029;51.054;13.798;2023-07-13T09:34:16;100233.31;;;33.60;27.78
76519;BME280;67029;51.054;13.798;2023-07-13T09:36:51;100237.02;;;33.70;27.58
76519;BME280;67029;51.054;13.798;2023-07-13T09:39:35;100240.81;;;33.81;27.67
76519;BME280;67029;51.054;13.798;2023-07-13T09:41:54;100236.07;;;33.82;27.63
76519;BME280;67029;51.054;13.798;2023-07-13T09:49:24;100244.91;;;33.79;27.12
76519;BME280;67029;51.054;13.798;2023-07-13T09:52:05;100250.45;;;33.79;26.82
76519;BME280;67029;51.054;13.798;2023-07-13T09:54:23;100253.08;;;33.75;26.83
76519;BME280;67029;51.054;13.798;2023-07-13T09:57:01;100255.05;;;33.71;26.70
76519;BME280;67029;51.054;13.798;2023-07-13T09:59:22;100256.92;;;33.64;26.96
76519;BME280;67029;51.054;13.798;2023-07-13T10:01:52;100245.58;;;33.72;27.11
76519;BME280;67029;51.054;13.798;2023-07-13T10:04:35;100256.70;;;33.77;27.09
76519;BME280;67029;51.054;13.798;2023-07-13T10:07:06;100255.66;;;33.81;26.26
76519;BME280;67029;51.054;13.798;2023-07-13T10:09:23;100251.33;;;33.83;26.36
76519;BME280;67029;51.054;13.798;2023-07-13T10:11:53;100256.59;;;33.85;25.69
76519;BME280;67029;51.054;13.798;2023-07-13T10:14:23;100253.38;;;33.77;25.00
76519;BME280;67029;51.054;13.798;2023-07-13T10:16:58;100250.98;;;33.58;25.35
76519;BME280;67029;51.054;13.798;2023-07-13T10:19:25;100252.41;;;33.53;25.54
76519;BME280;67029;51.054;13.798;2023-07-13T10:21:56;100258.91;;;33.36;26.05
76519;BME280;67029;51.054;13.798;2023-07-13T10:24:26;100256.24;;;33.26;25.78
76519;BME280;67029;51.054;13.798;2023-07-13T10:27:10;100254.33;;;33.14;25.84
76519;BME280;67029;51.054;13.798;2023-07-13T10:29:28;100255.61;;;33.11;26.01
76519;BME280;67029;51.054;13.798;2023-07-13T10:31:56;100255.02;;;33.19;26.21
76519;BME280;67029;51.054;13.798;2023-07-13T10:34:26;100251.64;;;33.28;26.39
76519;BME280;67029;51.054;13.798;2023-07-13T10:36:57;100249.49;;;33.50;26.75
76519;BME280;67029;51.054;13.798;2023-07-13T10:39:28;100258.78;;;33.78;26.77
76519;BME280;67029;51.054;13.798;2023-07-13T10:42:01;100252.43;;;34.01;26.43
76519;BME280;67029;51.054;13.798;2023-07-13T10:44:30;100248.52;;;34.07;25.62
76519;BME280;67029;51.054;13.798;2023-07-13T10:47:07;100249.08;;;34.13;26.01
76519;BME280;67029;51.054;13.798;2023-07-13T10:49:32;100247.03;;;34.39;26.15
76519;BME280;67029;51.054;13.798;2023-07-13T10:52:01;100241.02;;;34.65;25.66
76519;BME280;67029;51.054;13.798;2023-07-13T10:54:34;100237.05;;;34.83;25.07
76519;BME280;67029;51.054;13.798;2023-07-13T10:57:21;100239.17;;;34.92;24.76
76519;BME280;67029;51.054;13.798;2023-07-13T10:59:32;100239.38;;;34.98;24.52
76519;BME280;67029;51.054;13.798;2023-07-13T11:02:11;100231.16;;;35.16;24.18
76519;BME280;67029;51.054;13.798;2023-07-13T11:04:48;100233.39;;;35.32;24.28
76519;BME280;67029;51.054;13.798;2023-07-13T11:07:19;100228.91;;;35.32;24.26
76519;BME280;67029;51.054;13.798;2023-07-13T11:09:40;100235.66;;;35.46;24.03
76519;BME280;67029;51.054;13.798;2023-07-13T11:12:09;100226.31;;;35.66;23.85
76519;BME280;67029;51.054;13.798;2023-07-13T11:15:03;100229.91;;;35.84;23.24
76519;BME280;67029;51.054;13.798;2023-07-13T11:17:24;100232.07;;;35.77;22.44
76519;BME280;67029;51.054;13.798;2023-07-13T11:19:39;100223.62;;;35.60;21.92
76519;BME280;67029;51.054;13.798;2023-07-13T11:22:11;100229.12;;;35.51;22.31
76519;BME280;67029;51.054;13.798;2023-07-13T11:27:41;100222.84;;;35.62;23.09
76519;BME280;67029;51.054;13.798;2023-07-13T11:29:38;100224.41;;;35.77;22.46
76519;BME280;67029;51.054;13.798;2023-07-13T11:32:31;100225.52;;;35.91;22.83
76519;BME280;67029;51.054;13.798;2023-07-13T11:34:39;100226.03;;;36.09;22.94
76519;BME280;67029;51.054;13.798;2023-07-13T11:37:16;100227.68;;;36.30;22.97
76519;BME280;67029;51.054;13.798;2023-07-13T11:39:42;100228.41;;;36.58;23.08
76519;BME280;67029;51.054;13.798;2023-07-13T11:42:15;100228.47;;;36.94;22.89
76519;BME280;67029;51.054;13.798;2023-07-13T11:44:47;100230.03;;;37.23;22.54
76519;BME280;67029;51.054;13.798;2023-07-13T11:47:16;100227.96;;;37.57;21.98
76519;BME280;67029;51.054;13.798;2023-07-13T11:49:44;100226.12;;;37.85;21.70
76519;BME280;67029;51.054;13.798;2023-07-13T11:52:24;100226.86;;;38.10;21.22
76519;BME280;67029;51.054;13.798;2023-07-13T11:54:51;100224.95;;;38.19;20.91
76519;BME280;67029;51.054;13.798;2023-07-13T11:57:32;100223.95;;;38.10;20.94
76519;BME280;67029;51.054;13.798;2023-07-13T11:59:45;100230.62;;;37.87;20.39
76519;BME280;67029;51.054;13.798;2023-07-13T12:02:18;100220.77;;;37.26;20.20
76519;BME280;67029;51.054;13.798;2023-07-13T12:04:45;100216.19;;;36.94;20.75
76519;BME280;67029;51.054;13.798;2023-07-13T12:07:17;100215.05;;;36.67;21.63
76519;BME280;67029;51.054;13.798;2023-07-13T12:09:46;100217.89;;;36.79;21.82
76519;BME280;67029;51.054;13.798;2023-07-13T12:14:53;100206.86;;;36.98;21.72
76519;BME280;67029;51.054;13.798;2023-07-13T12:17:23;100216.66;;;37.19;21.88
76519;BME280;67029;51.054;13.798;2023-07-13T12:19:52;100215.09;;;37.49;21.85
76519;BME280;67029;51.054;13.798;2023-07-13T12:22:21;100212.78;;;37.55;21.04
76519;BME280;67029;51.054;13.798;2023-07-13T12:24:52;100214.22;;;37.59;21.08
76519;BME280;67029;51.054;13.798;2023-07-13T12:27:26;100212.52;;;37.72;20.96
76519;BME280;67029;51.054;13.798;2023-07-13T12:29:58;100208.44;;;37.85;20.99
76519;BME280;67029;51.054;13.798;2023-07-13T12:32:24;100210.78;;;37.90;20.78
76519;BME280;67029;51.054;13.798;2023-07-13T12:34:55;100213.20;;;37.99;20.71
76519;BME280;67029;51.054;13.798;2023-07-13T12:37:24;100212.85;;;38.14;20.76
76519;BME280;67029;51.054;13.798;2023-07-13T12:39:53;100204.02;;;38.25;20.60
76519;BME280;67029;51.054;13.798;2023-07-13T12:42:25;100206.28;;;38.18;20.10
76519;BME280;67029;51.054;13.798;2023-07-13T12:44:57;100204.00;;;38.12;20.11
76519;BME280;67029;51.054;13.798;2023-07-13T12:47:24;100209.12;;;37.90;20.49
76519;BME280;67029;51.054;13.798;2023-07-13T12:49:57;100209.25;;;37.85;20.69
76519;BME280;67029;51.054;13.798;2023-07-13T12:52:32;100209.06;;;37.76;20.30
76519;BME280;67029;51.054;13.798;2023-07-13T12:55:02;100210.07;;;37.51;20.24
76519;BME280;67029;51.054;13.798;2023-07-13T12:57:25;100210.58;;;37.29;20.33
76519;BME280;67029;51.054;13.798;2023-07-13T12:59:55;100202.73;;;37.03;20.40
76519;BME280;67029;51.054;13.798;2023-07-13T13:02:33;100202.17;;;37.12;20.79
76519;BME280;67029;51.054;13.798;2023-07-13T13:04:56;100201.22;;;37.26;20.33
76519;BME280;67029;51.054;13.798;2023-07-13T13:07:26;100200.90;;;37.28;20.16
76519;BME280;67029;51.054;13.798;2023-07-13T13:09:57;100204.48;;;37.27;20.23
76519;BME280;67029;51.054;13.798;2023-07-13T13:12:27;100200.72;;;37.31;20.32